Aledo, IL (61231)

7:14 AM CST on February 09, 2016 (GMT -0600)
KILALEDO2 | | Change Station
CLOSE
Current Station
Personal Weather Station
Location: Aledo, IL
Elevation: 735 ft
Nearby Weather Stations

Elev 735 ft 41.20 °N, 90.76 °W | Updated 11 seconds ago

Overcast
Overcast
14.4 °F
Feels Like 4 °F
N
7.2
Wind Variable Wind from NE
Gusts 7.2 mph

Today
High -- | Low -- °F
--% Chance of Precip.
Yesterday
High -- | Low -- °F
Precip. -- in
Pressure 29.92 in
Visibility 10.0 miles
Clouds Scattered Clouds 1500 ft
Windchill 4 °F
Dew Point 7 °F
Humidity 73%
Rainfall 0.00 in
Snow Depth Not available.
7:05 AM 5:29 PM
New Moon, 1% visible
SPECI KMLI 091305Z 32015G21KT 10SM SCT015 M11/M16 A2992 RMK AO2 T11061161
Pressure 29.92 in
Visibility 10.0 miles
Clouds Scattered Clouds 1500 ft
Windchill 4 °F
Dew Point 7 °F
Humidity 73%
Rainfall 0.00 in
Snow Depth Not available.
7:05 AM 5:29 PM
New Moon, 1% visible
SPECI KMLI 091305Z 32015G21KT 10SM SCT015 M11/M16 A2992 RMK AO2 T11061161

10-Day Weather Forecast

Almanac

Astronomy

Feb. 09, 2016 Rise Set
Actual Time
Civil Twilight
Nautical Twilight
Astronomical Twilight
Moon
Length of Visible Light
Length of Day
Tomorrow will be .
, % of the Moon is Illuminated

Today's Extremes

State Highs State Lows

Community

WunderPhotos

Upload Photos

1,891,591 photos uploaded!

WunderBlog® & News

Nearby

Air Quality

  Air Quality AQ Index Pollutant
Not available.

Snow Depth

Station Depth Elevation

Earthquake Activity

City Distance Mag. Time & Date
Minimum magnitude displayed is 2.5.

Coastal Water Temperatures

Place Temperature

Stations

Nearby Weather Stations

Station Location Temp. Windchill Dew Point Humidity Wind Precip. Elev Updated Type
                   

Watches & Warnings

There are currently no watches in effect.